createdAt,value
2018-01-26T00:01:58.619Z,10.40
2018-01-26T00:04:24.643Z,10.23
2018-01-26T00:06:50.631Z,10.17
2018-01-26T00:09:16.659Z,14.57
2018-01-26T00:11:43.608Z,10.90
2018-01-26T00:14:09.563Z,8.53
2018-01-26T00:16:38.770Z,11.03
2018-01-26T00:19:04.772Z,10.10
2018-01-26T00:21:33.393Z,9.03
2018-01-26T00:23:59.374Z,10.67
2018-01-26T00:26:25.416Z,10.57
2018-01-26T00:28:51.420Z,9.13
2018-01-26T00:31:17.416Z,9.80
2018-01-26T00:33:43.379Z,7.40
2018-01-26T00:36:09.378Z,8.23
2018-01-26T00:38:35.376Z,7.00
2018-01-26T00:41:01.322Z,5.10
2018-01-26T00:43:27.375Z,5.33
2018-01-26T00:45:53.384Z,4.50
2018-01-26T00:48:19.381Z,5.23
2018-01-26T00:50:45.382Z,3.43
2018-01-26T00:53:11.387Z,2.90
2018-01-26T00:55:37.618Z,2.60
2018-01-26T00:58:03.858Z,3.37
2018-01-26T01:00:30.597Z,2.90
2018-01-26T01:02:56.564Z,4.40
2018-01-26T01:05:22.553Z,2.50
2018-01-26T01:07:48.554Z,2.60
2018-01-26T01:10:14.499Z,2.03
2018-01-26T01:12:41.214Z,2.10
2018-01-26T01:15:08.115Z,1.70
2018-01-26T01:17:34.078Z,1.97
2018-01-26T01:20:00.049Z,1.93
2018-01-26T01:22:26.656Z,2.33
2018-01-26T01:24:52.689Z,3.40
2018-01-26T01:27:18.752Z,2.17
2018-01-26T01:29:44.743Z,1.83
2018-01-26T01:32:12.952Z,1.47
2018-01-26T01:34:39.014Z,1.83
2018-01-26T01:37:04.952Z,1.93
2018-01-26T01:39:30.939Z,1.70
2018-01-26T01:41:56.909Z,1.50
2018-01-26T01:44:22.906Z,2.80
2018-01-26T01:46:48.933Z,1.90
2018-01-26T01:49:14.884Z,1.57
2018-01-26T01:51:40.934Z,1.73
2018-01-26T01:54:06.933Z,1.60
2018-01-26T01:56:33.076Z,1.47
2018-01-26T01:58:59.070Z,1.50
2018-01-26T02:01:25.025Z,2.00
2018-01-26T02:03:51.094Z,2.17
2018-01-26T02:06:17.058Z,1.27
2018-01-26T02:08:42.963Z,1.97
2018-01-26T02:11:08.886Z,2.00
2018-01-26T02:13:34.842Z,3.20
2018-01-26T02:16:00.779Z,1.80
2018-01-26T02:18:26.717Z,2.50
2018-01-26T02:20:52.707Z,2.33
2018-01-26T02:23:19.274Z,3.27
2018-01-26T02:25:45.316Z,3.07
2018-01-26T02:28:11.331Z,2.53
2018-01-26T02:30:37.372Z,2.67
2018-01-26T02:33:03.428Z,3.27
2018-01-26T02:35:29.519Z,3.70
2018-01-26T02:37:56.212Z,3.60
2018-01-26T02:40:22.149Z,2.57
2018-01-26T02:42:48.251Z,2.80
2018-01-26T02:45:14.205Z,2.73
2018-01-26T02:47:40.182Z,2.70
2018-01-26T02:50:06.454Z,3.10
2018-01-26T02:52:32.436Z,3.10
2018-01-26T02:54:59.426Z,3.67
2018-01-26T02:57:25.405Z,3.53
2018-01-26T02:59:51.379Z,3.10
2018-01-26T03:02:17.368Z,3.13
2018-01-26T03:04:43.327Z,3.30
2018-01-26T03:07:09.286Z,2.30
2018-01-26T03:09:35.361Z,2.80
2018-01-26T03:12:01.374Z,2.63
2018-01-26T03:14:28.290Z,4.13
2018-01-26T03:16:54.200Z,3.70
2018-01-26T03:19:20.180Z,4.20
2018-01-26T03:21:46.157Z,2.97
2018-01-26T03:24:12.875Z,2.93
2018-01-26T03:26:38.859Z,3.10
2018-01-26T03:29:04.884Z,3.83
2018-01-26T03:31:30.905Z,3.73
2018-01-26T03:33:57.676Z,3.30
2018-01-26T03:36:23.662Z,5.40
2018-01-26T03:38:49.725Z,3.70
2018-01-26T03:41:15.650Z,3.50
2018-01-26T03:43:41.582Z,3.77
2018-01-26T03:46:07.509Z,4.93
2018-01-26T03:48:34.336Z,3.60
2018-01-26T03:51:01.066Z,4.43
2018-01-26T03:53:26.994Z,4.90
2018-01-26T03:55:53.024Z,5.67
2018-01-26T03:58:19.058Z,4.60
2018-01-26T04:00:44.982Z,4.47
2018-01-26T04:03:10.969Z,4.93
2018-01-26T04:05:37.232Z,5.60
2018-01-26T04:08:03.249Z,6.20
2018-01-26T04:10:29.210Z,5.57
2018-01-26T04:12:55.398Z,5.60
2018-01-26T04:15:21.435Z,6.47
2018-01-26T04:17:47.418Z,5.47
2018-01-26T04:20:13.388Z,5.67
2018-01-26T04:22:40.114Z,6.03
2018-01-26T04:25:06.161Z,7.33
2018-01-26T04:27:32.126Z,6.97
2018-01-26T04:29:59.016Z,6.57
2018-01-26T04:32:24.942Z,6.17
2018-01-26T04:34:51.102Z,5.27
2018-01-26T04:37:17.085Z,7.43
2018-01-26T04:39:43.034Z,7.20
2018-01-26T04:42:09.007Z,8.23
2018-01-26T04:44:35.014Z,9.77
2018-01-26T04:47:00.975Z,8.30
2018-01-26T04:49:27.139Z,6.83
2018-01-26T04:51:53.066Z,8.30
2018-01-26T04:54:19.011Z,9.93
2018-01-26T04:56:45.004Z,7.40
2018-01-26T04:59:11.017Z,7.40
2018-01-26T05:01:36.946Z,9.47
2018-01-26T05:04:02.895Z,10.00
2018-01-26T05:06:29.722Z,13.50
2018-01-26T05:08:55.700Z,10.97
2018-01-26T05:11:21.687Z,10.97
2018-01-26T05:13:47.673Z,9.43
2018-01-26T05:16:13.654Z,9.53
2018-01-26T05:18:40.345Z,11.03
2018-01-26T05:21:07.120Z,13.03
2018-01-26T05:23:33.947Z,12.20
2018-01-26T05:25:59.974Z,10.40
2018-01-26T05:28:26.095Z,15.83
2018-01-26T05:30:52.041Z,10.57
2018-01-26T05:33:18.028Z,10.60
2018-01-26T05:35:44.183Z,12.73
2018-01-26T05:38:10.639Z,12.20
2018-01-26T05:40:36.637Z,13.90
2018-01-26T05:43:02.664Z,11.30
2018-01-26T05:45:28.596Z,12.53
2018-01-26T05:47:54.578Z,10.33
2018-01-26T05:50:21.022Z,10.67
2018-01-26T05:52:47.110Z,10.13
2018-01-26T05:55:13.462Z,10.40
2018-01-26T05:57:39.486Z,11.33
2018-01-26T06:00:05.489Z,11.60
2018-01-26T06:02:31.459Z,10.00
2018-01-26T06:04:57.511Z,8.67
2018-01-26T06:07:23.478Z,10.50
2018-01-26T06:09:50.248Z,8.50
2018-01-26T06:12:16.345Z,8.17
2018-01-26T06:14:43.113Z,12.37
2018-01-26T06:17:09.145Z,8.37
2018-01-26T06:19:35.157Z,10.20
2018-01-26T06:22:01.159Z,9.10
2018-01-26T06:24:28.063Z,9.23
2018-01-26T06:26:54.065Z,9.50
2018-01-26T06:29:20.039Z,8.03
2018-01-26T06:31:47.348Z,8.50
2018-01-26T06:34:13.623Z,10.33
2018-01-26T06:36:39.620Z,11.33
2018-01-26T06:39:05.603Z,8.50
2018-01-26T06:41:32.448Z,8.73
2018-01-26T06:43:59.361Z,8.87
2018-01-26T06:46:25.441Z,10.37
2018-01-26T06:48:52.363Z,12.63
2018-01-26T06:51:18.410Z,11.43
2018-01-26T06:53:44.448Z,11.70
2018-01-26T06:56:11.535Z,11.67
2018-01-26T06:58:37.505Z,11.40
2018-01-26T07:01:03.454Z,10.00
2018-01-26T07:03:29.471Z,10.07
2018-01-26T07:05:55.987Z,8.80
2018-01-26T07:08:22.038Z,10.47
2018-01-26T07:10:48.149Z,13.23
2018-01-26T07:13:14.165Z,11.80
2018-01-26T07:15:40.282Z,10.90
2018-01-26T07:18:08.273Z,11.40
2018-01-26T07:20:35.205Z,9.20
2018-01-26T07:23:01.251Z,15.40
2018-01-26T07:25:29.715Z,19.27
2018-01-26T07:27:56.000Z,20.57
2018-01-26T07:30:22.858Z,13.87
2018-01-26T07:32:49.544Z,17.30
2018-01-26T07:35:16.458Z,24.03
2018-01-26T07:37:43.850Z,18.03
2018-01-26T07:40:09.788Z,18.43
2018-01-26T07:42:36.821Z,19.13
2018-01-26T07:45:02.841Z,16.80
2018-01-26T07:47:28.854Z,19.37
2018-01-26T07:50:00.430Z,26.17
2018-01-26T07:52:26.458Z,29.10
2018-01-26T07:54:52.775Z,21.70
2018-01-26T07:57:18.756Z,13.73
2018-01-26T07:59:45.936Z,15.90
2018-01-26T08:02:12.144Z,15.50
2018-01-26T08:04:38.256Z,14.10
2018-01-26T08:07:04.292Z,15.00
2018-01-26T08:09:30.672Z,17.17
2018-01-26T08:11:56.682Z,17.57
2018-01-26T08:14:22.662Z,17.03
2018-01-26T08:16:49.751Z,14.77
2018-01-26T08:19:15.728Z,15.60
2018-01-26T08:21:42.653Z,20.03
2018-01-26T08:24:09.487Z,16.70
2018-01-26T08:26:36.444Z,72.07
2018-01-26T08:31:34.244Z,28.73
2018-01-26T08:34:00.325Z,24.00
2018-01-26T08:36:27.498Z,26.70
2018-01-26T08:38:53.675Z,34.40
2018-01-26T08:41:19.975Z,81.97
2018-01-26T08:43:48.251Z,22.00
2018-01-26T08:46:14.272Z,15.67
2018-01-26T08:48:40.341Z,14.23
2018-01-26T08:51:06.846Z,15.60
2018-01-26T08:53:32.884Z,13.73
2018-01-26T08:55:59.795Z,15.20
2018-01-26T08:58:25.832Z,15.17
2018-01-26T09:00:52.255Z,13.23
2018-01-26T09:03:18.938Z,28.70
2018-01-26T09:05:45.725Z,24.43
2018-01-26T09:08:11.719Z,17.63
2018-01-26T09:10:37.674Z,20.37
2018-01-26T09:13:03.672Z,29.20
2018-01-26T09:15:29.629Z,13.80
2018-01-26T09:17:55.661Z,19.03
2018-01-26T09:20:21.730Z,15.50
2018-01-26T09:22:49.800Z,9.90
2018-01-26T09:25:16.110Z,12.30
2018-01-26T09:27:42.108Z,10.90
2018-01-26T09:30:08.327Z,11.20
2018-01-26T09:32:34.353Z,11.23
2018-01-26T09:35:01.264Z,14.80
2018-01-26T09:37:27.226Z,21.53
2018-01-26T09:39:53.439Z,19.30
2018-01-26T09:42:20.078Z,23.07
2018-01-26T09:44:46.028Z,15.07
2018-01-26T09:47:12.031Z,17.03
2018-01-26T09:49:37.995Z,11.90
2018-01-26T09:52:04.279Z,11.80
2018-01-26T09:54:30.256Z,10.30
2018-01-26T09:57:00.048Z,11.07
2018-01-26T09:59:25.991Z,8.90
2018-01-26T10:01:52.316Z,11.43
2018-01-26T10:04:22.211Z,11.63
2018-01-26T10:06:48.298Z,11.73
2018-01-26T10:09:14.279Z,10.00
2018-01-26T10:11:40.262Z,10.67
2018-01-26T10:14:06.271Z,17.97
2018-01-26T10:16:33.166Z,10.57
2018-01-26T10:18:59.293Z,9.80
2018-01-26T10:21:25.270Z,9.90
2018-01-26T10:23:51.283Z,7.37
2018-01-26T10:26:17.347Z,7.60
2018-01-26T10:28:43.814Z,7.10
2018-01-26T10:31:11.306Z,9.33
2018-01-26T10:33:38.172Z,8.30
2018-01-26T10:36:04.206Z,7.67
2018-01-26T10:38:30.515Z,7.57
2018-01-26T10:40:58.413Z,7.10
2018-01-26T10:43:25.163Z,8.20
2018-01-26T10:45:51.149Z,7.90
2018-01-26T10:48:17.100Z,5.93
2018-01-26T10:50:43.171Z,10.50
2018-01-26T10:53:09.175Z,9.97
2018-01-26T10:55:35.393Z,6.80
2018-01-26T10:58:02.744Z,7.77
2018-01-26T11:00:30.495Z,8.73
2018-01-26T11:02:58.242Z,6.60
2018-01-26T11:05:25.802Z,7.10
2018-01-26T11:07:52.678Z,7.73
2018-01-26T11:10:19.411Z,6.73
2018-01-26T11:12:45.413Z,11.20
2018-01-26T11:15:11.404Z,7.00
2018-01-26T11:17:38.618Z,5.80
2018-01-26T11:20:05.329Z,9.87
2018-01-26T11:22:32.074Z,9.93
2018-01-26T11:24:59.120Z,7.40
2018-01-26T11:27:25.505Z,9.23
2018-01-26T11:29:51.584Z,9.53
2018-01-26T11:32:18.304Z,6.60
2018-01-26T11:34:44.269Z,10.83
2018-01-26T11:37:11.287Z,9.53
2018-01-26T11:39:38.607Z,9.53
2018-01-26T11:42:05.534Z,9.40
2018-01-26T11:44:32.301Z,8.17
2018-01-26T11:46:58.392Z,9.07
2018-01-26T11:49:24.382Z,9.43
2018-01-26T11:51:51.222Z,15.03
2018-01-26T11:54:17.302Z,13.93
2018-01-26T11:56:45.052Z,12.07
2018-01-26T11:59:11.830Z,13.60
2018-01-26T12:01:37.969Z,9.27
2018-01-26T12:04:03.992Z,15.00
2018-01-26T12:06:30.309Z,11.80
2018-01-26T12:08:58.185Z,9.60
2018-01-26T12:11:24.419Z,7.53
2018-01-26T12:13:52.159Z,12.60
2018-01-26T12:16:18.182Z,7.60
2018-01-26T12:18:44.348Z,11.13
2018-01-26T12:21:10.503Z,12.90
2018-01-26T12:23:37.267Z,10.97
2018-01-26T12:26:03.378Z,8.23
2018-01-26T12:28:29.895Z,9.17
2018-01-26T12:30:56.612Z,8.43
2018-01-26T12:33:23.178Z,8.47
2018-01-26T12:35:49.426Z,10.40
2018-01-26T12:38:16.536Z,13.37
2018-01-26T12:40:43.442Z,6.03
2018-01-26T12:43:09.542Z,7.53
2018-01-26T12:45:36.110Z,8.77
2018-01-26T12:48:02.574Z,16.20
2018-01-26T12:50:28.979Z,10.70
2018-01-26T12:52:55.143Z,10.40
2018-01-26T12:55:21.223Z,14.30
2018-01-26T12:57:48.239Z,7.70
2018-01-26T13:00:14.581Z,9.83
2018-01-26T13:02:41.468Z,9.80
2018-01-26T13:05:07.435Z,13.60
2018-01-26T13:07:33.450Z,11.90
2018-01-26T13:09:59.710Z,11.10
2018-01-26T13:12:26.428Z,14.00
2018-01-26T13:14:52.467Z,12.37
2018-01-26T13:17:18.422Z,18.77
2018-01-26T13:19:44.397Z,17.60
2018-01-26T13:22:10.403Z,12.10
2018-01-26T13:29:42.671Z,14.50
2018-01-26T13:32:08.848Z,13.23
2018-01-26T13:34:34.815Z,16.17
2018-01-26T13:37:03.622Z,19.13
2018-01-26T13:39:29.681Z,17.03
2018-01-26T13:41:56.518Z,15.77
2018-01-26T13:44:22.648Z,18.70
2018-01-26T13:46:48.847Z,16.37
2018-01-26T13:49:15.000Z,12.10
2018-01-26T13:51:41.038Z,13.60
2018-01-26T13:54:07.092Z,16.50
2018-01-26T13:56:33.167Z,10.10
2018-01-26T13:58:59.289Z,23.40
2018-01-26T14:01:26.412Z,10.47
2018-01-26T14:03:53.078Z,17.70
2018-01-26T14:06:19.766Z,13.53
2018-01-26T14:08:46.051Z,12.60
2018-01-26T14:11:12.402Z,13.67
2018-01-26T14:13:39.095Z,12.70
2018-01-26T14:16:05.120Z,13.97
2018-01-26T14:18:31.125Z,15.87
2018-01-26T14:20:58.223Z,12.93
2018-01-26T14:23:26.200Z,14.00
2018-01-26T14:25:52.884Z,13.30
2018-01-26T14:28:21.799Z,12.63
2018-01-26T14:30:48.074Z,16.80
2018-01-26T14:33:15.389Z,27.10
2018-01-26T14:35:41.396Z,14.33
2018-01-26T14:38:07.557Z,17.67
2018-01-26T14:40:34.398Z,15.00
2018-01-26T14:43:01.506Z,15.37
2018-01-26T14:45:28.742Z,16.47
2018-01-26T14:47:54.762Z,15.23
2018-01-26T14:50:20.908Z,13.27
2018-01-26T14:52:46.914Z,19.97
2018-01-26T14:55:12.983Z,16.73
2018-01-26T14:57:39.799Z,18.50
2018-01-26T15:00:06.623Z,19.10
2018-01-26T15:02:32.666Z,14.33
2018-01-26T15:04:59.549Z,18.40
2018-01-26T15:07:25.589Z,18.10
2018-01-26T15:09:53.026Z,20.80
2018-01-26T15:12:21.316Z,17.80
2018-01-26T15:14:47.298Z,15.90
2018-01-26T15:17:13.882Z,17.40
2018-01-26T15:19:39.866Z,18.37
2018-01-26T15:22:05.918Z,17.80
2018-01-26T15:24:31.943Z,19.03
2018-01-26T15:26:59.732Z,17.80
2018-01-26T15:29:25.834Z,19.83
2018-01-26T15:31:51.992Z,18.90
2018-01-26T15:34:17.999Z,16.37
2018-01-26T15:36:44.170Z,18.90
2018-01-26T15:39:11.024Z,21.70
2018-01-26T15:41:37.074Z,19.30
2018-01-26T15:44:03.140Z,19.07
2018-01-26T15:46:29.199Z,29.10
2018-01-26T15:48:55.245Z,23.53
2018-01-26T15:51:21.989Z,20.90
2018-01-26T15:53:48.104Z,19.00
2018-01-26T15:56:14.373Z,22.50
2018-01-26T15:58:40.413Z,24.97
2018-01-26T16:01:08.625Z,20.27
2018-01-26T16:03:36.507Z,22.97
2018-01-26T16:06:03.565Z,22.97
2018-01-26T16:08:31.360Z,20.07
2018-01-26T16:10:59.176Z,26.50
2018-01-26T16:13:25.274Z,19.43
2018-01-26T16:16:07.250Z,22.73
2018-01-26T16:18:34.011Z,23.03
2018-01-26T16:21:01.779Z,22.50
2018-01-26T16:23:27.940Z,19.10
2018-01-26T16:25:53.943Z,23.43
2018-01-26T16:28:21.012Z,17.20
2018-01-26T16:30:48.196Z,20.63
2018-01-26T16:33:14.184Z,19.90
2018-01-26T16:35:40.184Z,22.57
2018-01-26T16:38:06.995Z,20.50
2018-01-26T16:40:33.160Z,19.63
2018-01-26T16:42:59.187Z,23.37
2018-01-26T16:45:27.003Z,23.03
2018-01-26T16:47:53.695Z,22.80
2018-01-26T16:50:19.734Z,18.93
2018-01-26T16:52:45.737Z,26.07
2018-01-26T16:55:11.765Z,21.80
2018-01-26T16:57:37.834Z,22.77
2018-01-26T17:00:03.903Z,22.03
2018-01-26T17:02:30.976Z,24.50
2018-01-26T17:04:57.078Z,21.80
2018-01-26T17:07:23.633Z,22.77
2018-01-26T17:09:50.953Z,21.77
2018-01-26T17:12:17.300Z,19.17
2018-01-26T17:14:43.332Z,23.23
2018-01-26T17:17:09.461Z,25.17
2018-01-26T17:19:35.567Z,24.80
2018-01-26T17:22:01.898Z,27.23
2018-01-26T17:24:28.178Z,22.47
2018-01-26T17:26:54.160Z,19.63
2018-01-26T17:29:20.844Z,22.70
2018-01-26T17:31:48.405Z,24.67
2018-01-26T17:34:14.511Z,24.87
2018-01-26T17:39:13.881Z,21.17
2018-01-26T17:41:40.289Z,23.37
2018-01-26T17:44:06.235Z,21.43
2018-01-26T17:46:33.999Z,23.80
2018-01-26T17:49:02.308Z,23.10
2018-01-26T17:54:06.260Z,24.67
2018-01-26T17:56:33.010Z,24.37
2018-01-26T17:58:59.707Z,24.00
2018-01-26T18:01:29.095Z,24.57
2018-01-26T18:03:55.192Z,31.93
2018-01-26T18:06:21.144Z,22.77
2018-01-26T18:08:47.102Z,27.73
2018-01-26T18:11:13.006Z,26.80
2018-01-26T18:13:38.923Z,27.43
2018-01-26T18:16:06.152Z,26.47
2018-01-26T18:18:32.395Z,27.03
2018-01-26T18:20:59.758Z,28.07
2018-01-26T18:23:27.633Z,21.90
2018-01-26T18:25:53.754Z,19.63
2018-01-26T18:28:21.423Z,25.60
2018-01-26T18:30:47.642Z,26.23
2018-01-26T18:33:14.764Z,25.93
2018-01-26T18:35:46.658Z,22.83
2018-01-26T18:38:14.725Z,23.97
2018-01-26T18:40:42.961Z,30.40
2018-01-26T18:43:09.652Z,24.30
2018-01-26T18:45:35.710Z,28.97
2018-01-26T18:48:03.497Z,25.30
2018-01-26T18:50:30.589Z,32.23
2018-01-26T18:52:56.676Z,29.10
2018-01-26T18:55:23.310Z,30.73
2018-01-26T18:57:49.410Z,27.50
2018-01-26T19:00:15.923Z,25.97
2018-01-26T19:02:47.038Z,25.43
2018-01-26T19:05:14.074Z,26.23
2018-01-26T19:07:40.369Z,29.40
2018-01-26T19:10:06.622Z,25.20
2018-01-26T19:12:33.288Z,26.07
2018-01-26T19:15:01.448Z,26.07
2018-01-26T19:17:27.776Z,24.70
2018-01-26T19:19:53.891Z,24.77
2018-01-26T19:22:22.447Z,29.47
2018-01-26T19:24:53.539Z,29.23
2018-01-26T19:27:21.350Z,28.60
2018-01-26T19:29:49.255Z,24.00
2018-01-26T19:32:15.291Z,29.93
2018-01-26T19:34:42.094Z,24.80
2018-01-26T19:37:09.692Z,27.53
2018-01-26T19:39:38.336Z,19.77
2018-01-26T19:42:05.280Z,23.87
2018-01-26T19:44:34.065Z,27.07
2018-01-26T19:47:01.285Z,28.97
2018-01-26T19:49:27.469Z,29.20
2018-01-26T19:51:53.606Z,27.50
2018-01-26T19:54:20.208Z,30.67
2018-01-26T19:56:46.297Z,24.00
2018-01-26T19:59:13.313Z,28.00
2018-01-26T20:01:39.546Z,23.43
2018-01-26T20:04:05.539Z,22.87
2018-01-26T20:06:53.178Z,38.00
2018-01-26T20:09:27.085Z,26.60
2018-01-26T20:11:59.128Z,27.33
2018-01-26T20:14:25.702Z,24.60
2018-01-26T20:16:57.815Z,26.80
2018-01-26T20:19:30.695Z,32.37
2018-01-26T20:21:57.695Z,27.33
2018-01-26T20:24:24.402Z,30.00
2018-01-26T20:26:50.498Z,33.30
2018-01-26T20:29:22.994Z,29.67
2018-01-26T20:31:53.354Z,28.27
2018-01-26T20:34:22.970Z,27.30
2018-01-26T20:36:50.405Z,29.00
2018-01-26T20:39:18.495Z,34.53
2018-01-26T20:41:44.603Z,34.43
2018-01-26T20:44:13.676Z,33.57
2018-01-26T20:46:39.764Z,26.73
2018-01-26T20:49:05.994Z,41.87
2018-01-26T20:51:32.187Z,32.53
2018-01-26T20:53:58.196Z,31.17
2018-01-26T20:56:24.273Z,37.37
2018-01-26T20:58:51.057Z,33.13
2018-01-26T21:03:52.097Z,31.80
2018-01-26T21:06:20.111Z,31.00
2018-01-26T21:08:46.144Z,30.80
2018-01-26T21:11:12.983Z,33.70
2018-01-26T21:13:38.939Z,23.43
2018-01-26T21:16:04.933Z,27.20
2018-01-26T21:18:31.385Z,31.40
2018-01-26T21:20:58.319Z,29.20
2018-01-26T21:23:26.411Z,26.80
2018-01-26T21:25:53.632Z,30.03
2018-01-26T21:28:20.576Z,31.17
2018-01-26T21:30:53.247Z,33.60
2018-01-26T21:33:20.223Z,36.57
2018-01-26T21:35:46.501Z,34.13
2018-01-26T21:38:26.056Z,29.03
2018-01-26T21:43:26.782Z,38.10
2018-01-26T21:45:52.910Z,32.13
2018-01-26T21:48:22.409Z,33.70
2018-01-26T21:50:50.604Z,35.03
2018-01-26T21:53:19.177Z,37.70
2018-01-26T21:55:50.021Z,28.90
2018-01-26T21:58:16.110Z,33.63
2018-01-26T22:00:44.369Z,33.00
2018-01-26T22:03:10.394Z,30.17
2018-01-26T22:05:38.707Z,28.57
2018-01-26T22:08:04.988Z,34.63
2018-01-26T22:10:31.129Z,29.73
2018-01-26T22:12:58.673Z,28.27
2018-01-26T22:15:25.782Z,22.40
2018-01-26T22:17:52.908Z,33.67
2018-01-26T22:20:19.322Z,31.93
2018-01-26T22:22:46.224Z,38.23
2018-01-26T22:25:12.355Z,31.00
2018-01-26T22:27:38.413Z,24.13
2018-01-26T22:30:06.118Z,25.80
2018-01-26T22:32:34.592Z,24.63
2018-01-26T22:35:03.551Z,29.27
2018-01-26T22:37:29.678Z,26.57
2018-01-26T22:39:57.483Z,26.40
2018-01-26T22:42:23.708Z,29.73
2018-01-26T22:44:53.026Z,30.43
2018-01-26T22:47:19.974Z,30.07
2018-01-26T22:49:46.550Z,28.70
2018-01-26T22:52:13.609Z,33.57
2018-01-26T22:54:40.957Z,33.13
2018-01-26T22:57:07.252Z,30.13
2018-01-26T22:59:34.911Z,31.03
2018-01-26T23:02:03.665Z,34.50
2018-01-26T23:04:30.815Z,31.20
2018-01-26T23:06:57.244Z,30.57
2018-01-26T23:09:24.659Z,29.87
2018-01-26T23:11:53.099Z,35.33
2018-01-26T23:14:21.415Z,31.40
2018-01-26T23:16:47.613Z,26.73
2018-01-26T23:19:13.741Z,26.93
2018-01-26T23:21:45.948Z,22.30
2018-01-26T23:24:15.294Z,21.40
2018-01-26T23:26:47.594Z,25.17
2018-01-26T23:29:15.183Z,21.27
2018-01-26T23:31:41.178Z,22.33
2018-01-26T23:34:07.269Z,20.67
2018-01-26T23:36:33.964Z,26.70
2018-01-26T23:39:01.293Z,25.40
2018-01-26T23:41:32.066Z,23.30
2018-01-26T23:43:59.171Z,23.00
2018-01-26T23:46:26.140Z,24.53
2018-01-26T23:48:52.827Z,26.17
2018-01-26T23:51:19.826Z,28.37
2018-01-26T23:53:46.163Z,25.17
2018-01-26T23:56:14.412Z,22.83
2018-01-26T23:58:40.887Z,34.07
